Terminal Aerodrome Forecast
Issued by NWS

Home | Current Version | Previous Version | Graphics & Text | Print | Product List | Glossary On
Versions: 1 2 3 4 5 6 7 8 9 10 11 12 13 14
000
FTUS41 KCLE 241932 AAA
TAFFDY
TAF AMD
KFDY 241932Z 2420/2518 01010KT P6SM SCT040 BKN120
      TEMPO 2420/2423 5SM -SHRA BKN025
     FM242300 27011KT P6SM SCT040 BKN200
     FM251000 23008KT P6SM VCTS BKN035CB OVC080
     FM251400 26010KT P6SM SCT035 BKN100=

USA.gov is the U.S. government's official web portal to all federal, state and local government web resources and services.